createdAt,value
2019-01-22T00:01:12.231Z,37.27
2019-01-22T00:05:22.266Z,36.03
2019-01-22T00:09:32.285Z,33.97
2019-01-22T00:13:42.674Z,36.00
2019-01-22T00:17:53.060Z,37.33
2019-01-22T00:22:03.726Z,33.70
2019-01-22T00:26:07.981Z,34.63
2019-01-22T00:30:20.142Z,38.13
2019-01-22T00:34:30.559Z,40.07
2019-01-22T00:38:34.318Z,36.20
2019-01-22T00:42:44.775Z,39.37
2019-01-22T00:46:55.729Z,35.27
2019-01-22T00:50:59.054Z,36.57
2019-01-22T00:55:08.564Z,37.47
2019-01-22T00:59:18.883Z,37.10
2019-01-22T01:03:22.287Z,37.07
2019-01-22T01:07:32.282Z,35.23
2019-01-22T01:11:42.191Z,37.67
2019-01-22T01:15:51.988Z,35.87
2019-01-22T01:20:01.999Z,37.10
2019-01-22T01:24:12.498Z,39.20
2019-01-22T01:28:16.372Z,36.93
2019-01-22T01:32:27.354Z,40.40
2019-01-22T01:36:37.947Z,34.90
2019-01-22T01:40:41.366Z,41.80
2019-01-22T01:44:51.611Z,35.83
2019-01-22T01:49:01.984Z,37.13
2019-01-22T01:53:05.822Z,36.13
2019-01-22T01:57:15.890Z,36.43
2019-01-22T02:01:26.045Z,43.33
2019-01-22T02:05:29.921Z,36.33
2019-01-22T02:09:39.487Z,36.73
2019-01-22T02:13:51.635Z,37.40
2019-01-22T02:18:11.960Z,35.53
2019-01-22T02:22:31.609Z,43.00
2019-01-22T02:26:49.122Z,44.83
2019-01-22T02:31:05.218Z,44.53
2019-01-22T02:35:17.331Z,45.23
2019-01-22T02:39:44.970Z,39.07
2019-01-22T02:44:20.952Z,34.80
2019-01-22T02:48:29.005Z,38.77
2019-01-22T02:52:59.903Z,53.03
2019-01-22T02:57:32.138Z,45.03
2019-01-22T03:01:53.750Z,40.90
2019-01-22T03:06:11.698Z,37.83
2019-01-22T03:10:34.582Z,43.30
2019-01-22T03:15:03.542Z,44.80
2019-01-22T03:19:34.970Z,42.10
2019-01-22T03:24:02.534Z,46.73
2019-01-22T03:28:31.562Z,46.77
2019-01-22T03:32:47.440Z,44.27
2019-01-22T03:37:15.842Z,40.33
2019-01-22T03:41:50.795Z,43.70
2019-01-22T03:46:23.088Z,46.43
2019-01-22T03:50:41.253Z,46.27
2019-01-22T03:55:15.991Z,43.23
2019-01-22T03:59:26.374Z,42.83
2019-01-22T04:03:36.578Z,44.57
2019-01-22T04:07:40.016Z,41.67
2019-01-22T04:11:51.700Z,47.33
2019-01-22T04:16:01.615Z,53.07
2019-01-22T04:20:12.009Z,43.77
2019-01-22T04:24:40.119Z,50.07
2019-01-22T04:29:36.879Z,49.67
2019-01-22T04:34:05.099Z,52.43
2019-01-22T04:38:45.976Z,36.00
2019-01-22T04:43:04.218Z,48.37
2019-01-22T04:47:18.350Z,46.80
2019-01-22T04:51:37.563Z,47.67
2019-01-22T04:56:19.403Z,44.47
2019-01-22T05:00:37.308Z,42.43
2019-01-22T05:05:04.844Z,48.70
2019-01-22T05:09:30.541Z,49.77
2019-01-22T05:13:59.430Z,61.67
2019-01-22T05:18:24.132Z,51.27
2019-01-22T05:22:51.565Z,42.13
2019-01-22T05:27:06.975Z,43.43
2019-01-22T05:31:45.264Z,47.10
2019-01-22T05:36:42.726Z,28.27
2019-01-22T05:41:11.934Z,38.47
2019-01-22T05:45:22.092Z,41.77
2019-01-22T05:50:23.440Z,40.00
2019-01-22T05:55:07.882Z,35.93
2019-01-22T05:59:16.856Z,31.73
2019-01-22T06:03:52.195Z,37.43
2019-01-22T06:08:21.691Z,33.53
2019-01-22T06:13:02.497Z,33.17
2019-01-22T06:17:37.218Z,35.77
2019-01-22T06:22:51.255Z,45.33
2019-01-22T06:27:05.665Z,32.07
2019-01-22T06:31:48.939Z,33.00
2019-01-22T06:36:45.277Z,37.83
2019-01-22T06:41:11.106Z,39.90
2019-01-22T06:45:43.474Z,30.60
2019-01-22T06:50:00.776Z,31.00
2019-01-22T06:54:14.913Z,31.37
2019-01-22T06:58:54.262Z,33.40
2019-01-22T07:03:16.893Z,31.80
2019-01-22T07:07:44.437Z,34.80
2019-01-22T07:12:13.352Z,27.90
2019-01-22T07:16:42.195Z,30.50
2019-01-22T07:21:09.856Z,30.10
2019-01-22T07:25:36.529Z,30.70
2019-01-22T07:29:46.040Z,35.63
2019-01-22T07:34:14.061Z,26.03
2019-01-22T07:38:33.834Z,27.73
2019-01-22T07:43:14.449Z,33.10
2019-01-22T07:47:29.695Z,26.67
2019-01-22T07:51:44.083Z,27.00
2019-01-22T07:55:58.683Z,28.73
2019-01-22T08:00:33.359Z,23.50
2019-01-22T08:05:23.867Z,31.77
2019-01-22T08:10:04.593Z,32.07
2019-01-22T08:14:33.986Z,27.73
2019-01-22T08:18:49.621Z,22.00
2019-01-22T08:23:09.495Z,32.60
2019-01-22T08:27:44.390Z,29.23
2019-01-22T08:32:17.202Z,25.50
2019-01-22T08:36:52.459Z,36.77
2019-01-22T08:41:46.076Z,22.93
2019-01-22T08:46:30.096Z,22.27
2019-01-22T08:50:53.982Z,20.30
2019-01-22T08:55:23.366Z,18.47
2019-01-22T08:59:43.718Z,19.40
2019-01-22T09:04:05.146Z,18.80
2019-01-22T09:08:23.794Z,16.90
2019-01-22T09:12:35.814Z,18.07
2019-01-22T09:17:08.046Z,22.63
2019-01-22T09:21:26.206Z,23.20
2019-01-22T09:25:39.438Z,22.00
2019-01-22T09:30:17.827Z,21.07
2019-01-22T09:34:47.044Z,19.60
2019-01-22T09:38:50.906Z,21.90
2019-01-22T09:43:01.205Z,15.93
2019-01-22T09:47:05.094Z,16.93
2019-01-22T09:51:14.962Z,18.87
2019-01-22T09:55:25.178Z,15.87
2019-01-22T09:59:35.957Z,26.90
2019-01-22T10:03:46.086Z,22.47
2019-01-22T10:07:49.809Z,29.27
2019-01-22T10:12:00.046Z,17.33
2019-01-22T10:16:11.126Z,20.57
2019-01-22T10:20:23.243Z,23.50
2019-01-22T10:24:26.963Z,18.57
2019-01-22T10:28:44.723Z,22.80
2019-01-22T10:32:54.779Z,24.47
2019-01-22T10:37:04.562Z,26.47
2019-01-22T10:41:14.498Z,22.97
2019-01-22T10:45:17.902Z,21.90
2019-01-22T10:49:27.938Z,19.97
2019-01-22T10:53:38.000Z,24.33
2019-01-22T10:57:48.843Z,21.97
2019-01-22T11:01:52.638Z,23.83
2019-01-22T11:06:02.774Z,30.93
2019-01-22T11:10:13.927Z,21.20
2019-01-22T11:14:23.321Z,24.53
2019-01-22T11:18:26.611Z,28.13
2019-01-22T11:22:36.806Z,28.00
2019-01-22T11:26:47.599Z,29.93
2019-01-22T11:31:05.163Z,24.37
2019-01-22T11:35:16.169Z,31.57
2019-01-22T11:39:19.907Z,27.97
2019-01-22T11:43:30.638Z,28.57
2019-01-22T11:47:41.304Z,27.43
2019-01-22T11:51:44.586Z,23.70
2019-01-22T11:55:54.817Z,28.57
2019-01-22T12:00:05.027Z,22.57
2019-01-22T12:04:08.387Z,33.30
2019-01-22T12:08:17.874Z,34.80
2019-01-22T12:12:28.010Z,29.53
2019-01-22T12:16:32.070Z,30.33
2019-01-22T12:20:42.438Z,27.17
2019-01-22T12:24:53.620Z,32.47
2019-01-22T12:28:56.906Z,30.13
2019-01-22T12:33:14.334Z,31.03
2019-01-22T12:37:24.747Z,32.00
2019-01-22T12:41:28.046Z,27.37
2019-01-22T12:45:39.207Z,34.87
2019-01-22T12:49:49.596Z,34.00
2019-01-22T12:53:52.886Z,27.77
2019-01-22T12:58:03.283Z,30.60
2019-01-22T13:02:13.818Z,30.93
2019-01-22T13:06:17.621Z,33.77
2019-01-22T13:10:28.338Z,33.20
2019-01-22T13:14:32.357Z,30.80
2019-01-22T13:18:43.158Z,28.80
2019-01-22T13:22:53.157Z,40.10
2019-01-22T13:26:56.962Z,32.97
2019-01-22T13:31:07.102Z,35.67
2019-01-22T13:35:23.247Z,34.33
2019-01-22T13:39:26.794Z,32.70
2019-01-22T13:43:37.078Z,33.67
2019-01-22T13:47:47.771Z,39.70
2019-01-22T13:51:51.499Z,37.97
2019-01-22T13:56:01.730Z,39.40
2019-01-22T14:00:05.998Z,46.33
2019-01-22T14:04:16.308Z,42.50
2019-01-22T14:08:19.589Z,42.47
2019-01-22T14:12:29.722Z,35.00
2019-01-22T14:16:39.843Z,32.00
2019-01-22T14:20:43.148Z,46.10
2019-01-22T14:24:53.651Z,33.30
2019-01-22T14:29:04.428Z,48.67
2019-01-22T14:33:08.617Z,42.40
2019-01-22T14:37:25.738Z,44.13
2019-01-22T14:41:35.554Z,43.03
2019-01-22T14:45:46.079Z,46.80
2019-01-22T14:49:49.365Z,41.57
2019-01-22T14:53:59.262Z,42.50
2019-01-22T14:58:09.562Z,41.40
2019-01-22T15:02:12.850Z,46.60
2019-01-22T15:06:23.214Z,40.90
2019-01-22T15:10:33.458Z,47.57
2019-01-22T15:14:37.185Z,51.00
2019-01-22T15:18:46.842Z,51.97
2019-01-22T15:22:57.064Z,48.50
2019-01-22T15:27:00.639Z,55.50
2019-01-22T15:31:10.870Z,50.03
2019-01-22T15:35:28.458Z,49.30
2019-01-22T15:39:32.487Z,46.23
2019-01-22T15:43:43.174Z,44.63
2019-01-22T15:47:46.987Z,47.17
2019-01-22T15:51:58.002Z,46.23
2019-01-22T15:56:01.734Z,43.23
2019-01-22T16:00:12.782Z,49.17
2019-01-22T16:04:23.066Z,51.63
2019-01-22T16:08:33.267Z,51.20
2019-01-22T16:12:36.874Z,44.20
2019-01-22T16:16:47.050Z,52.87
2019-01-22T16:20:57.422Z,32.90
2019-01-22T16:25:01.150Z,49.53
2019-01-22T16:29:10.914Z,50.33
2019-01-22T16:33:21.718Z,54.63
2019-01-22T16:37:31.974Z,45.97
2019-01-22T16:41:42.639Z,50.80
2019-01-22T16:45:52.266Z,49.33
2019-01-22T16:49:56.238Z,55.93
2019-01-22T16:54:06.702Z,48.03
2019-01-22T16:58:10.510Z,47.83
2019-01-22T17:02:20.134Z,53.30
2019-01-22T17:06:24.019Z,51.43
2019-01-22T17:10:34.239Z,49.90
2019-01-22T17:14:37.530Z,49.73
2019-01-22T17:18:47.647Z,59.03
2019-01-22T17:23:02.066Z,52.57
2019-01-22T17:27:07.320Z,49.70
2019-01-22T17:31:34.164Z,51.37
2019-01-22T17:35:40.307Z,58.20
2019-01-22T17:39:56.386Z,48.87
2019-01-22T17:43:59.682Z,50.77
2019-01-22T17:48:09.214Z,55.57
2019-01-22T17:52:19.330Z,54.00
2019-01-22T17:56:22.614Z,56.10
2019-01-22T18:00:33.766Z,58.93
2019-01-22T18:04:37.059Z,56.30
2019-01-22T18:08:48.286Z,49.57
2019-01-22T18:12:59.038Z,54.73
2019-01-22T18:17:02.600Z,56.67
2019-01-22T18:21:13.450Z,57.77
2019-01-22T18:25:16.819Z,54.70
2019-01-22T18:29:27.423Z,47.93
2019-01-22T18:33:37.195Z,60.47
2019-01-22T18:37:40.994Z,55.60
2019-01-22T18:41:58.050Z,52.50
2019-01-22T18:46:08.698Z,64.67
2019-01-22T18:50:20.806Z,59.40
2019-01-22T18:54:31.667Z,55.93
2019-01-22T18:58:42.018Z,58.37
2019-01-22T19:02:45.742Z,59.93
2019-01-22T19:06:56.178Z,60.00
2019-01-22T19:11:06.370Z,54.10
2019-01-22T19:15:12.378Z,64.07
2019-01-22T19:19:22.906Z,55.20
2019-01-22T19:23:39.460Z,53.30
2019-01-22T19:27:49.974Z,58.60
2019-01-22T19:31:53.974Z,61.13
2019-01-22T19:36:04.014Z,54.80
2019-01-22T19:40:16.291Z,54.57
2019-01-22T19:44:26.679Z,64.10
2019-01-22T19:48:37.023Z,63.37
2019-01-22T19:52:47.535Z,64.80
2019-01-22T19:56:51.254Z,62.80
2019-01-22T20:01:15.374Z,65.13
2019-01-22T20:05:32.843Z,55.57
2019-01-22T20:09:36.854Z,56.53
2019-01-22T20:13:47.449Z,58.40
2019-01-22T20:17:58.196Z,55.67
2019-01-22T20:22:02.251Z,56.43
2019-01-22T20:26:12.223Z,56.83
2019-01-22T20:30:28.715Z,53.10
2019-01-22T20:34:33.043Z,51.73
2019-01-22T20:38:43.635Z,48.97
2019-01-22T20:43:01.191Z,58.00
2019-01-22T20:47:04.922Z,50.37
2019-01-22T20:51:15.247Z,67.43
2019-01-22T20:55:19.723Z,60.90
2019-01-22T20:59:30.070Z,54.50
2019-01-22T21:03:39.982Z,51.43
2019-01-22T21:07:44.350Z,57.67
2019-01-22T21:11:54.654Z,56.80
2019-01-22T21:16:05.155Z,60.00
2019-01-22T21:20:09.452Z,61.70
2019-01-22T21:24:19.774Z,62.50
2019-01-22T21:28:29.839Z,59.30
2019-01-22T21:32:33.621Z,52.30
2019-01-22T21:36:44.241Z,57.60
2019-01-22T21:40:55.080Z,64.10
2019-01-22T21:45:07.732Z,54.87
2019-01-22T21:49:17.838Z,59.63
2019-01-22T21:53:28.660Z,60.20
2019-01-22T21:57:32.434Z,67.83
2019-01-22T22:01:43.216Z,62.13
2019-01-22T22:05:53.420Z,67.27
2019-01-22T22:09:57.550Z,54.47
2019-01-22T22:14:08.271Z,70.00
2019-01-22T22:18:18.956Z,62.50
2019-01-22T22:22:22.732Z,52.90
2019-01-22T22:26:32.965Z,63.93
2019-01-22T22:30:37.504Z,60.17
2019-01-22T22:34:48.108Z,58.30
2019-01-22T22:38:51.877Z,67.67
2019-01-22T22:43:01.930Z,57.70
2019-01-22T22:47:12.619Z,63.77
2019-01-22T22:51:22.848Z,57.93
2019-01-22T22:55:32.965Z,54.13
2019-01-22T22:59:36.766Z,63.97
2019-01-22T23:03:46.760Z,57.77
2019-01-22T23:07:50.538Z,58.83
2019-01-22T23:12:01.537Z,60.73
2019-01-22T23:16:05.808Z,64.53
2019-01-22T23:20:16.804Z,59.17
2019-01-22T23:24:27.476Z,59.93
2019-01-22T23:28:31.566Z,64.53
2019-01-22T23:32:42.421Z,57.60
2019-01-22T23:36:53.363Z,60.60
2019-01-22T23:40:57.136Z,61.43
2019-01-22T23:45:07.812Z,60.53
2019-01-22T23:49:18.693Z,59.27
2019-01-22T23:53:22.485Z,62.97
2019-01-22T23:57:26.272Z,61.13
